Kynouria — V7VY6 — position and weather

sailwx.info

Track history (hours):
 
Tides and Currents Weather Stations Pressure Air Temp Water Temp Dewpoint Dewpoint Depression Visibility Wind Speed Wind Dir Waves Ship Positions

Kynouria

Last reported at 2016-Nov-12 06:18 UTC. Time now 2016-Dec-10 08:50 UTC.
Position N 01°17' E 104°04'.
Warning: this ship's position is 28 days out of date.

Length 229 m; draft 14.4 m.

Type: Ship. MMSI: 538004243.

Date/timePositionNaut miles runAvg speedWind from/ knotsBaromVisibWave heightAir tempDewpointWater temp
2016-Nov-12 06:18N 01°17' E 104°04'  
2016-Nov-08 17:10S 03°59' E 114°22'16 9.8
2016-Nov-08 15:33S 03°44' E 114°25'0 0.0
2016-Nov-08 09:33S 03°44' E 114°26'0 0.1
2016-Nov-08 06:30S 03°44' E 114°25'0 0.0
2016-Nov-08 04:27S 03°44' E 114°25'0 0.0
2016-Nov-08 00:33S 03°44' E 114°25'0 0.0
2016-Nov-07 19:33S 03°44' E 114°25'0 0.0
2016-Nov-07 17:30S 03°44' E 114°25'0 0.1
2016-Nov-07 16:33S 03°44' E 114°25'0 0.1
2016-Nov-07 15:30S 03°44' E 114°25'0 0.0
2016-Nov-07 14:33S 03°44' E 114°25'0 0.0
2016-Nov-07 13:33S 03°44' E 114°25'0 0.0
2016-Nov-07 09:33S 03°44' E 114°25'232105.8
2016-Nov-07 07:22S 07°12' E 112°43'0 0.0
2016-Nov-07 06:06S 07°12' E 112°43'0 0.0
2016-Nov-07 05:32S 07°12' E 112°43'23152.3
2016-Nov-07 01:06S 03°44' E 114°25'0 0.0
2016-Nov-06 22:33S 03°44' E 114°26'0 0.0
2016-Nov-06 20:30S 03°44' E 114°25'0 0.1
2016-Nov-06 19:30S 03°44' E 114°26'0 0.0
2016-Nov-06 17:33S 03°44' E 114°25'0 0.0
2016-Nov-06 15:33S 03°44' E 114°25'0 0.1
2016-Nov-06 13:33S 03°44' E 114°25'0 0.1
2016-Nov-06 12:30S 03°44' E 114°25'0 0.0
2016-Nov-06 11:33S 03°44' E 114°25'0 0.0
2016-Nov-06 10:33S 03°44' E 114°25'0 0.0
2016-Nov-05 23:33S 03°44' E 114°25'0 0.0
2016-Nov-05 20:42S 03°44' E 114°26'0 0.2
2016-Nov-05 20:15S 03°44' E 114°26'0 0.1
2016-Nov-05 16:30S 03°44' E 114°25'0 0.0
2016-Nov-05 12:31S 03°44' E 114°25'0 0.0
2016-Nov-05 11:31S 03°44' E 114°25'0 0.0
2016-Nov-05 10:31S 03°44' E 114°25'0 0.0
2016-Nov-05 09:31S 03°44' E 114°25'0 0.0
2016-Nov-05 07:28S 03°44' E 114°26'0 0.0
2016-Nov-05 04:28S 03°44' E 114°26'0 0.1
2016-Nov-05 02:31S 03°44' E 114°25'0 0.0
2016-Nov-04 23:31S 03°44' E 114°25'0 0.0
2016-Nov-04 22:31S 03°44' E 114°25'0 0.1
2016-Nov-04 21:31S 03°44' E 114°25'0 0.1
2016-Nov-04 20:31S 03°44' E 114°25'0 0.1
2016-Nov-04 18:31S 03°44' E 114°25'0 0.1
2016-Nov-04 16:31S 03°44' E 114°26'0 0.0
2016-Nov-04 14:19S 03°44' E 114°26'0 0.0
2016-Nov-04 12:28S 03°44' E 114°26'0 0.0
2016-Nov-04 08:22S 03°44' E 114°26'  
Track history (hours):
 
Tides and Currents Weather Stations Pressure Air Temp Water Temp Dewpoint Dewpoint Depression Visibility Wind Speed Wind Dir Waves Ship Positions

Kynouria

Last reported at 2016-Nov-12 06:18 UTC. Time now 2016-Dec-10 08:50 UTC.
Position N 01°17' E 104°04'.
Warning: this ship's position is 28 days out of date.

Length 229 m; draft 14.4 m.

Type: Ship. MMSI: 538004243.

Date/timePositionNaut miles runAvg speedWind from/ knotsBaromVisibWave heightAir tempDewpointWater temp
2016-Nov-12 06:18N 01°17' E 104°04'  
2016-Nov-08 17:10S 03°59' E 114°22'16 9.8
2016-Nov-08 15:33S 03°44' E 114°25'0 0.0
2016-Nov-08 09:33S 03°44' E 114°26'0 0.1
2016-Nov-08 06:30S 03°44' E 114°25'0 0.0
2016-Nov-08 04:27S 03°44' E 114°25'0 0.0
2016-Nov-08 00:33S 03°44' E 114°25'0 0.0
2016-Nov-07 19:33S 03°44' E 114°25'0 0.0
2016-Nov-07 17:30S 03°44' E 114°25'0 0.1
2016-Nov-07 16:33S 03°44' E 114°25'0 0.1
2016-Nov-07 15:30S 03°44' E 114°25'0 0.0
2016-Nov-07 14:33S 03°44' E 114°25'0 0.0
2016-Nov-07 13:33S 03°44' E 114°25'0 0.0
2016-Nov-07 09:33S 03°44' E 114°25'232105.8
2016-Nov-07 07:22S 07°12' E 112°43'0 0.0
2016-Nov-07 06:06S 07°12' E 112°43'0 0.0
2016-Nov-07 05:32S 07°12' E 112°43'23152.3
2016-Nov-07 01:06S 03°44' E 114°25'0 0.0
2016-Nov-06 22:33S 03°44' E 114°26'0 0.0
2016-Nov-06 20:30S 03°44' E 114°25'0 0.1
2016-Nov-06 19:30S 03°44' E 114°26'0 0.0
2016-Nov-06 17:33S 03°44' E 114°25'0 0.0
2016-Nov-06 15:33S 03°44' E 114°25'0 0.1
2016-Nov-06 13:33S 03°44' E 114°25'0 0.1
2016-Nov-06 12:30S 03°44' E 114°25'0 0.0
2016-Nov-06 11:33S 03°44' E 114°25'0 0.0
2016-Nov-06 10:33S 03°44' E 114°25'0 0.0
2016-Nov-05 23:33S 03°44' E 114°25'0 0.0
2016-Nov-05 20:42S 03°44' E 114°26'0 0.2
2016-Nov-05 20:15S 03°44' E 114°26'0 0.1
2016-Nov-05 16:30S 03°44' E 114°25'0 0.0
2016-Nov-05 12:31S 03°44' E 114°25'0 0.0
2016-Nov-05 11:31S 03°44' E 114°25'0 0.0
2016-Nov-05 10:31S 03°44' E 114°25'0 0.0
2016-Nov-05 09:31S 03°44' E 114°25'0 0.0
2016-Nov-05 07:28S 03°44' E 114°26'0 0.0
2016-Nov-05 04:28S 03°44' E 114°26'0 0.1
2016-Nov-05 02:31S 03°44' E 114°25'0 0.0
2016-Nov-04 23:31S 03°44' E 114°25'0 0.0
2016-Nov-04 22:31S 03°44' E 114°25'0 0.1
2016-Nov-04 21:31S 03°44' E 114°25'0 0.1
2016-Nov-04 20:31S 03°44' E 114°25'0 0.1
2016-Nov-04 18:31S 03°44' E 114°25'0 0.1
2016-Nov-04 16:31S 03°44' E 114°26'0 0.0
2016-Nov-04 14:19S 03°44' E 114°26'0 0.0
2016-Nov-04 12:28S 03°44' E 114°26'0 0.0
2016-Nov-04 08:22S 03°44' E 114°26'  

Dump ship's entire track history